createdAt,value
2019-05-09T00:04:29.687Z,2.30
2019-05-09T00:10:41.634Z,1.77
2019-05-09T00:16:43.938Z,2.23
2019-05-09T00:22:49.816Z,1.90
2019-05-09T00:28:59.974Z,2.10
2019-05-09T00:35:23.392Z,2.70
2019-05-09T00:41:29.450Z,2.60
2019-05-09T00:47:35.288Z,2.53
2019-05-09T00:53:41.127Z,2.77
2019-05-09T00:59:47.732Z,2.60
2019-05-09T01:05:54.290Z,3.20
2019-05-09T01:12:00.224Z,3.30
2019-05-09T01:18:06.025Z,3.10
2019-05-09T01:24:13.869Z,3.00
2019-05-09T01:30:20.021Z,3.20
2019-05-09T01:36:27.551Z,3.43
2019-05-09T01:42:34.761Z,3.60
2019-05-09T01:48:43.024Z,3.40
2019-05-09T01:54:49.870Z,3.60
2019-05-09T02:00:55.835Z,3.30
2019-05-09T02:07:03.969Z,3.17
2019-05-09T02:13:09.421Z,3.10
2019-05-09T02:19:25.725Z,4.00
2019-05-09T02:25:33.500Z,3.80
2019-05-09T02:31:39.179Z,3.63
2019-05-09T02:37:45.151Z,3.83
2019-05-09T02:43:51.173Z,3.47
2019-05-09T02:49:58.996Z,3.43
2019-05-09T02:56:04.411Z,3.77
2019-05-09T03:02:29.087Z,3.70
2019-05-09T03:08:34.958Z,3.70
2019-05-09T03:14:41.212Z,3.40
2019-05-09T03:20:59.774Z,3.50
2019-05-09T03:27:11.176Z,3.87
2019-05-09T03:33:20.218Z,3.63
2019-05-09T03:39:24.585Z,3.83
2019-05-09T03:45:30.696Z,3.90
2019-05-09T03:51:37.896Z,3.90
2019-05-09T03:57:48.816Z,5.30
2019-05-09T04:03:54.739Z,3.60
2019-05-09T04:10:00.626Z,4.47
2019-05-09T04:16:09.014Z,7.40
2019-05-09T04:22:14.792Z,7.90
2019-05-09T04:28:20.798Z,5.13
2019-05-09T04:34:27.543Z,4.70
2019-05-09T04:40:37.683Z,3.60
2019-05-09T04:46:41.687Z,3.40
2019-05-09T04:52:47.603Z,3.93
2019-05-09T04:58:53.498Z,3.50
2019-05-09T05:04:59.439Z,3.93
2019-05-09T05:11:07.333Z,4.13
2019-05-09T05:17:12.872Z,3.60
2019-05-09T05:23:25.013Z,3.80
2019-05-09T05:29:30.825Z,2.70
2019-05-09T05:35:43.028Z,2.60
2019-05-09T05:41:49.804Z,2.67
2019-05-09T05:48:18.757Z,2.90
2019-05-09T05:54:24.637Z,2.30
2019-05-09T06:00:30.565Z,3.33
2019-05-09T06:06:37.473Z,2.40
2019-05-09T06:12:43.489Z,2.73
2019-05-09T06:18:49.592Z,2.50
2019-05-09T06:24:58.103Z,3.03
2019-05-09T06:31:03.888Z,2.23
2019-05-09T06:37:10.125Z,3.03
2019-05-09T06:43:24.508Z,2.13
2019-05-09T06:49:37.545Z,2.43
2019-05-09T06:55:43.449Z,2.20
2019-05-09T07:02:08.075Z,2.00
2019-05-09T07:08:27.427Z,2.20
2019-05-09T07:14:38.215Z,2.20
2019-05-09T07:20:43.624Z,2.00
2019-05-09T07:26:49.389Z,2.03
2019-05-09T07:33:05.465Z,1.87
2019-05-09T07:39:11.290Z,2.17
2019-05-09T07:45:18.045Z,1.80
2019-05-09T07:51:24.674Z,2.43
2019-05-09T07:57:30.434Z,1.83
2019-05-09T08:03:38.492Z,1.70
2019-05-09T08:09:44.059Z,1.70
2019-05-09T08:15:49.861Z,1.50
2019-05-09T08:21:57.490Z,2.00
2019-05-09T08:28:03.301Z,2.37
2019-05-09T08:34:09.278Z,2.27
2019-05-09T08:40:15.314Z,1.57
2019-05-09T08:46:21.443Z,1.70
2019-05-09T08:52:28.770Z,1.80
2019-05-09T08:58:34.674Z,1.70
2019-05-09T09:04:40.570Z,3.20
2019-05-09T09:10:48.822Z,1.70
2019-05-09T09:16:54.066Z,1.80
2019-05-09T09:23:01.004Z,1.33
2019-05-09T09:29:08.445Z,1.67
2019-05-09T09:35:14.545Z,1.30
2019-05-09T09:41:20.505Z,1.73
2019-05-09T09:47:28.573Z,1.47
2019-05-09T09:53:34.323Z,1.20
2019-05-09T09:59:49.633Z,1.07
2019-05-09T10:05:53.784Z,0.90
2019-05-09T10:12:00.693Z,1.10
2019-05-09T10:18:13.641Z,1.67
2019-05-09T10:24:19.457Z,1.00
2019-05-09T10:30:33.946Z,0.80
2019-05-09T10:36:39.782Z,0.90
2019-05-09T10:43:00.172Z,1.20
2019-05-09T10:49:08.299Z,1.30
2019-05-09T10:55:14.453Z,1.20
2019-05-09T11:01:20.951Z,0.80
2019-05-09T11:07:29.023Z,0.97
2019-05-09T11:13:34.665Z,1.13
2019-05-09T11:19:40.889Z,0.80
2019-05-09T11:25:47.522Z,0.90
2019-05-09T11:31:53.450Z,1.13
2019-05-09T11:37:59.739Z,1.00
2019-05-09T11:44:08.562Z,1.23
2019-05-09T11:50:18.996Z,1.33
2019-05-09T11:56:23.318Z,1.70
2019-05-09T12:02:30.190Z,0.90
2019-05-09T12:08:38.574Z,1.00
2019-05-09T12:14:48.328Z,0.77
2019-05-09T12:20:53.689Z,0.90
2019-05-09T12:27:02.852Z,1.03
2019-05-09T12:33:08.582Z,1.10
2019-05-09T12:39:14.817Z,0.90
2019-05-09T12:45:20.775Z,0.93
2019-05-09T12:51:28.289Z,0.87
2019-05-09T12:57:34.129Z,0.80
2019-05-09T13:03:40.264Z,1.00
2019-05-09T13:09:52.211Z,0.90
2019-05-09T13:16:14.256Z,1.00
2019-05-09T13:22:20.228Z,0.70
2019-05-09T13:28:26.077Z,0.80
2019-05-09T13:34:32.205Z,1.10
2019-05-09T13:40:38.257Z,0.90
2019-05-09T13:46:44.079Z,1.20
2019-05-09T13:52:50.021Z,0.93
2019-05-09T13:58:57.896Z,1.10
2019-05-09T14:05:03.952Z,1.77
2019-05-09T14:11:09.824Z,1.30
2019-05-09T14:17:18.738Z,1.93
2019-05-09T14:23:24.101Z,2.80
2019-05-09T14:29:31.547Z,3.40
2019-05-09T14:35:38.702Z,2.77
2019-05-09T14:41:47.115Z,3.10
2019-05-09T14:47:52.596Z,2.70
2019-05-09T14:53:59.622Z,2.80
2019-05-09T15:00:07.810Z,2.60
2019-05-09T15:06:14.106Z,2.20
2019-05-09T15:12:20.170Z,2.00
2019-05-09T15:18:26.176Z,1.93
2019-05-09T15:24:32.241Z,1.60
2019-05-09T15:30:38.632Z,2.10
2019-05-09T15:36:44.941Z,1.60
2019-05-09T15:42:51.251Z,1.62
2019-05-09T15:48:58.277Z,1.33
2019-05-09T15:55:04.400Z,1.30
2019-05-09T16:01:10.550Z,1.10
2019-05-09T16:07:17.887Z,1.10
2019-05-09T16:13:23.988Z,1.15
2019-05-09T16:19:29.730Z,0.90
2019-05-09T16:25:35.622Z,1.57
2019-05-09T16:31:41.491Z,1.13
2019-05-09T16:38:00.369Z,1.45
2019-05-09T16:43:58.370Z,1.10
2019-05-09T16:50:04.783Z,0.90
2019-05-09T16:56:11.178Z,1.10
2019-05-09T17:02:24.300Z,1.20
2019-05-09T17:08:28.319Z,1.30
2019-05-09T17:14:34.640Z,1.20
2019-05-09T17:20:51.011Z,1.47
2019-05-09T17:26:58.023Z,1.80
2019-05-09T17:33:04.507Z,2.00
2019-05-09T17:39:10.611Z,1.40
2019-05-09T17:45:16.829Z,1.20
2019-05-09T17:51:33.155Z,1.10
2019-05-09T17:57:30.840Z,1.10
2019-05-09T18:03:38.484Z,0.80
2019-05-09T18:09:44.733Z,1.97
2019-05-09T18:15:50.491Z,1.70
2019-05-09T18:21:57.801Z,1.70
2019-05-09T18:28:04.521Z,1.60
2019-05-09T18:34:10.592Z,1.60
2019-05-09T18:40:18.027Z,1.10
2019-05-09T18:46:24.087Z,1.40
2019-05-09T18:52:29.865Z,1.10
2019-05-09T18:58:36.481Z,1.13
2019-05-09T19:04:42.906Z,1.47
2019-05-09T19:10:52.140Z,3.33
2019-05-09T19:17:18.292Z,5.40
2019-05-09T19:23:24.276Z,4.07
2019-05-09T19:29:30.247Z,2.27
2019-05-09T19:35:36.287Z,2.43
2019-05-09T19:41:42.145Z,1.63
2019-05-09T19:47:48.465Z,1.10
2019-05-09T19:53:54.427Z,0.90
2019-05-09T20:00:00.355Z,1.27
2019-05-09T20:06:06.779Z,0.87
2019-05-09T20:12:21.360Z,1.00
2019-05-09T20:18:27.533Z,1.20
2019-05-09T20:24:33.947Z,1.37
2019-05-09T20:30:39.897Z,1.20
2019-05-09T20:36:46.678Z,2.20
2019-05-09T20:42:52.604Z,2.67
2019-05-09T20:48:59.060Z,2.47
2019-05-09T20:55:05.160Z,3.10
2019-05-09T21:01:11.092Z,3.10
2019-05-09T21:07:17.551Z,3.33
2019-05-09T21:13:23.630Z,3.80
2019-05-09T21:19:29.640Z,4.17
2019-05-09T21:25:35.980Z,4.40
2019-05-09T21:31:41.921Z,5.50
2019-05-09T21:37:48.475Z,6.13
2019-05-09T21:43:54.339Z,6.37
2019-05-09T21:50:00.098Z,6.80
2019-05-09T21:56:05.874Z,7.07
2019-05-09T22:02:12.031Z,7.37
2019-05-09T22:08:18.523Z,7.23
2019-05-09T22:14:24.336Z,8.30
2019-05-09T22:20:30.140Z,7.70
2019-05-09T22:26:35.943Z,8.23
2019-05-09T22:32:41.696Z,8.57
2019-05-09T22:38:47.490Z,8.70
2019-05-09T22:44:53.247Z,8.10
2019-05-09T22:50:58.992Z,8.03
2019-05-09T22:57:04.706Z,7.27
2019-05-09T23:03:10.467Z,7.60
2019-05-09T23:09:16.209Z,7.90
2019-05-09T23:15:22.680Z,9.23
2019-05-09T23:21:30.005Z,9.53
2019-05-09T23:27:35.786Z,9.27
2019-05-09T23:33:42.934Z,9.20
2019-05-09T23:39:49.071Z,8.50
2019-05-09T23:45:54.765Z,8.37
2019-05-09T23:52:00.484Z,8.00
2019-05-09T23:58:23.865Z,7.87
